Terminal Aerodrome Forecast
Issued by NWS Louisville, KY

Home | Current Version | Previous Version | Text Only | Print | Product List | Glossary On
Versions: 1 2 3 4 5 6 7 8 9 10 11 12 13 14 15 16 17 18 19
000
FTUS43 KLMK 070500
TAFBWG
TAF
KBWG 070520Z 0706/0806 19006KT P6SM FEW040
     FM071100 20005KT P6SM VCTS SCT035CB BKN080
     FM071400 23014G22KT P6SM VCSH SCT040 BKN200
     FM072100 23014G20KT 6SM -SHRA VCTS BKN040CB BKN200
     FM080200 20008KT P6SM VCSH BKN040=

USA.gov is the U.S. government's official web portal to all federal, state and local government web resources and services.